Time;durP1;ratioP1;P1;durP2;ratioP2;P2;SDS_P1;SDS_P2;PMS_P1;PMS_P2;Temp;Humidity;BMP_temperature;BMP_pressure;BME280_temperature;BME280_humidity;BME280_pressure;Samples;Min_cycle;Max_cycle;Signal;HPM_P1;HPM_P2
2022/11/30 00:00:22;;;;;;;8.70;3.83;;;7.80;98.00;;;;;;5012155;28;20463;-66
2022/11/30 00:02:52;;;;;;;9.57;4.30;;;7.70;98.00;;;;;;5012139;28;20455;-66
2022/11/30 00:05:21;;;;;;;7.27;3.60;;;7.60;98.00;;;;;;5012142;28;20529;-66
2022/11/30 00:07:48;;;;;;;6.50;3.60;;;7.70;98.00;;;;;;5012367;28;20472;-66
2022/11/30 00:10:15;;;;;;;9.93;4.03;;;7.70;98.00;;;;;;5011969;28;20473;-66
2022/11/30 00:12:42;;;;;;;11.37;4.50;;;7.60;98.00;;;;;;5012274;28;20462;-66
2022/11/30 00:15:12;;;;;;;8.00;3.00;;;7.80;98.00;;;;;;5011952;28;20465;-66
2022/11/30 00:17:43;;;;;;;7.13;3.23;;;7.70;98.00;;;;;;5012236;28;20473;-66
2022/11/30 00:20:12;;;;;;;13.13;3.37;;;7.90;98.00;;;;;;4994426;28;20461;-66
2022/11/30 00:22:39;;;;;;;6.90;4.30;;;7.80;98.00;;;;;;5012087;28;20469;-66
2022/11/30 00:25:07;;;;;;;14.30;2.87;;;7.90;98.00;;;;;;5012053;28;20458;-66
2022/11/30 00:27:35;;;;;;;7.00;3.83;;;7.90;98.00;;;;;;4994768;28;20462;-66
2022/11/30 00:30:02;;;;;;;6.10;2.97;;;7.90;98.00;;;;;;5012178;28;20459;-66
2022/11/30 00:32:30;;;;;;;7.40;3.53;;;7.90;98.00;;;;;;5011910;28;20493;-66
2022/11/30 00:34:58;;;;;;;6.27;3.10;;;7.90;98.00;;;;;;5012141;28;20452;-66
2022/11/30 00:37:25;;;;;;;7.17;3.70;;;8.00;98.00;;;;;;5011930;28;20461;-66
2022/11/30 00:39:55;;;;;;;11.00;4.10;;;8.00;98.00;;;;;;5012022;28;20458;-66
2022/11/30 00:42:22;;;;;;;3.20;2.60;;;8.00;98.00;;;;;;5011942;28;20521;-66
2022/11/30 00:44:49;;;;;;;8.77;4.17;;;7.90;98.00;;;;;;5011704;28;20466;-66
2022/11/30 00:47:16;;;;;;;2.90;2.40;;;7.80;98.00;;;;;;4994460;28;20468;-66
2022/11/30 00:49:43;;;;;;;6.43;3.87;;;7.80;98.00;;;;;;5013022;28;20589;-66
2022/11/30 00:52:11;;;;;;;6.60;3.77;;;7.80;98.00;;;;;;5015355;28;21020;-66
2022/11/30 00:54:39;;;;;;;8.70;3.07;;;7.70;98.00;;;;;;5015335;28;20518;-66
2022/11/30 00:57:06;;;;;;;7.30;4.53;;;7.80;98.00;;;;;;5014798;28;20451;-66
2022/11/30 00:59:33;;;;;;;7.90;3.73;;;7.60;98.00;;;;;;4997290;28;20962;-66
2022/11/30 01:02:00;;;;;;;6.30;3.13;;;7.50;98.00;;;;;;4997431;28;20476;-66
2022/11/30 01:04:28;;;;;;;6.67;3.67;;;7.60;98.00;;;;;;5015258;28;20857;-66
2022/11/30 01:06:56;;;;;;;7.10;3.57;;;7.50;98.00;;;;;;5015399;28;20907;-66
2022/11/30 01:09:26;;;;;;;3.17;2.20;;;7.50;98.00;;;;;;5015216;28;20490;-66
2022/11/30 01:11:53;;;;;;;7.00;3.50;;;7.40;98.00;;;;;;4997873;28;20493;-66
2022/11/30 01:14:20;;;;;;;10.00;4.27;;;7.40;98.00;;;;;;5015064;28;20459;-66
2022/11/30 01:16:47;;;;;;;5.27;3.07;;;7.40;98.00;;;;;;5015272;28;20464;-66
2022/11/30 01:19:16;;;;;;;4.60;3.60;;;7.60;98.00;;;;;;5015136;28;20529;-66
2022/11/30 01:21:43;;;;;;;9.90;3.97;;;7.70;98.00;;;;;;5015065;28;20469;-66
2022/11/30 01:24:10;;;;;;;7.20;3.43;;;7.70;98.00;;;;;;5014942;28;20482;-66
2022/11/30 01:26:39;;;;;;;4.27;3.17;;;7.60;98.00;;;;;;5015078;28;20466;-66
2022/11/30 01:29:07;;;;;;;7.33;3.13;;;7.60;98.00;;;;;;5015100;28;20956;-66
2022/11/30 01:31:35;;;;;;;7.67;3.70;;;7.60;98.00;;;;;;4997712;28;20560;-66
2022/11/30 01:34:03;;;;;;;7.10;3.60;;;7.60;98.00;;;;;;5014882;28;20531;-66
2022/11/30 01:36:31;;;;;;;7.80;3.97;;;7.60;98.00;;;;;;4997614;28;20489;-66
2022/11/30 01:38:59;;;;;;;8.50;3.33;;;7.60;98.00;;;;;;4997231;28;20452;-66
2022/11/30 01:41:27;;;;;;;5.50;3.40;;;7.60;98.00;;;;;;5014695;28;20856;-66
2022/11/30 01:43:58;;;;;;;6.57;3.80;;;7.60;98.00;;;;;;5014428;28;20473;-66
2022/11/30 01:46:31;;;;;;;4.00;2.80;;;7.70;98.00;;;;;;5014655;28;20866;-66
2022/11/30 01:49:04;;;;;;;7.30;3.90;;;7.60;98.00;;;;;;5014501;28;20466;-66
2022/11/30 01:51:36;;;;;;;8.90;4.07;;;7.60;98.00;;;;;;5014130;28;20493;-66
2022/11/30 01:54:05;;;;;;;11.03;3.80;;;7.60;98.00;;;;;;5014429;28;20493;-66
2022/11/30 01:56:33;;;;;;;7.50;4.20;;;7.60;98.00;;;;;;5014125;28;20455;-66
2022/11/30 01:59:02;;;;;;;6.50;3.13;;;7.60;98.00;;;;;;5014286;28;20966;-66
2022/11/30 02:01:30;;;;;;;6.53;3.00;;;7.60;98.00;;;;;;5013930;28;20454;-66
2022/11/30 02:04:03;;;;;;;9.93;4.83;;;7.70;98.00;;;;;;5014134;28;20463;-66
2022/11/30 02:06:30;;;;;;;8.53;3.47;;;7.70;98.00;;;;;;5014141;28;20460;-66
2022/11/30 02:08:59;;;;;;;6.50;3.43;;;7.60;98.00;;;;;;5014237;28;20982;-66
2022/11/30 02:11:27;;;;;;;6.43;3.00;;;7.70;98.00;;;;;;5014117;28;20893;-66
2022/11/30 02:14:09;;;;;;;3.87;3.10;;;7.70;98.00;;;;;;5014173;28;20517;-66
2022/11/30 02:16:47;;;;;;;4.53;3.23;;;7.50;98.00;;;;;;5014124;28;20470;-66
2022/11/30 02:19:47;;;;;;;8.23;3.23;;;7.50;98.00;;;;;;5014148;28;20449;-66
2022/11/30 02:22:24;;;;;;;7.90;3.20;;;7.50;98.00;;;;;;5013969;28;20518;-66
2022/11/30 02:25:03;;;;;;;8.60;4.47;;;7.40;98.00;;;;;;5014170;28;20465;-66
2022/11/30 02:27:54;;;;;;;8.03;3.57;;;7.40;98.00;;;;;;5014062;28;20497;-66
2022/11/30 02:30:23;;;;;;;7.87;3.60;;;7.30;98.00;;;;;;5003503;28;20467;-66
2022/11/30 02:32:55;;;;;;;5.67;3.27;;;7.20;98.00;;;;;;5013541;28;21066;-66
2022/11/30 02:35:27;;;;;;;9.03;3.60;;;7.20;98.00;;;;;;5013654;28;20462;-66
2022/11/30 02:37:56;;;;;;;4.50;2.70;;;7.20;98.00;;;;;;5013572;28;20948;-66
2022/11/30 02:40:24;;;;;;;9.93;3.40;;;7.20;98.00;;;;;;5013382;28;20463;-66
2022/11/30 02:42:54;;;;;;;10.13;4.40;;;7.10;98.00;;;;;;5013383;28;20520;-66
2022/11/30 02:45:29;;;;;;;11.07;3.50;;;7.10;98.00;;;;;;5013400;28;20465;-66
2022/11/30 02:48:04;;;;;;;7.97;4.10;;;7.10;98.00;;;;;;5013336;28;20471;-66
2022/11/30 02:50:38;;;;;;;6.57;3.47;;;7.00;98.00;;;;;;5013199;28;20875;-66
2022/11/30 02:53:06;;;;;;;9.00;4.57;;;7.00;98.00;;;;;;4995661;28;20493;-66
2022/11/30 02:55:34;;;;;;;7.03;2.80;;;7.00;98.00;;;;;;5013225;28;20461;-66
2022/11/30 02:58:01;;;;;;;7.43;3.10;;;7.10;98.00;;;;;;5013290;28;20460;-66
2022/11/30 03:00:30;;;;;;;4.83;2.90;;;7.10;98.00;;;;;;5013211;28;20461;-66
2022/11/30 03:02:57;;;;;;;7.40;2.87;;;7.10;98.00;;;;;;5013341;28;20515;-66
2022/11/30 03:05:24;;;;;;;3.20;2.67;;;7.20;98.00;;;;;;4995659;28;20483;-66
2022/11/30 03:07:51;;;;;;;5.10;3.20;;;7.20;98.00;;;;;;5013350;28;20467;-66
2022/11/30 03:10:18;;;;;;;5.73;2.83;;;7.20;98.00;;;;;;5012979;28;20528;-66
2022/11/30 03:12:45;;;;;;;7.67;3.47;;;7.10;98.00;;;;;;5012605;28;20485;-66
2022/11/30 03:15:12;;;;;;;4.70;3.20;;;7.10;98.00;;;;;;5013048;28;20502;-66
2022/11/30 03:17:41;;;;;;;6.93;3.47;;;7.10;98.00;;;;;;5013151;28;20468;-66
2022/11/30 03:20:09;;;;;;;5.47;3.43;;;7.10;98.00;;;;;;5012862;28;20467;-66
2022/11/30 03:22:36;;;;;;;2.63;2.10;;;7.20;98.00;;;;;;5013029;28;20594;-66
2022/11/30 03:25:04;;;;;;;4.20;2.80;;;7.20;98.00;;;;;;5012664;28;20461;-66
2022/11/30 03:27:31;;;;;;;5.43;3.13;;;7.20;98.00;;;;;;4995361;28;20856;-66
2022/11/30 03:29:58;;;;;;;4.40;2.90;;;7.30;98.00;;;;;;5012575;28;20472;-66
2022/11/30 03:32:25;;;;;;;5.67;2.63;;;7.50;98.00;;;;;;5012513;28;20893;-66
2022/11/30 03:34:54;;;;;;;6.37;3.67;;;7.40;98.00;;;;;;5012576;28;20461;-66
2022/11/30 03:37:21;;;;;;;5.70;3.17;;;7.40;98.00;;;;;;5012551;28;20472;-66
2022/11/30 03:39:48;;;;;;;7.03;3.10;;;7.40;98.00;;;;;;5012487;28;20468;-66
2022/11/30 03:42:15;;;;;;;7.80;3.50;;;7.40;98.00;;;;;;5012367;28;20526;-66
2022/11/30 03:44:42;;;;;;;5.23;3.00;;;7.40;98.00;;;;;;5012415;28;20514;-66
2022/11/30 03:47:09;;;;;;;6.30;2.90;;;7.60;98.00;;;;;;4994858;28;21144;-66
2022/11/30 03:49:36;;;;;;;7.23;3.30;;;7.50;98.00;;;;;;5012229;28;20523;-66
2022/11/30 03:52:05;;;;;;;3.93;2.50;;;7.50;98.00;;;;;;5012287;28;20546;-66
2022/11/30 03:54:32;;;;;;;9.20;3.33;;;7.40;98.00;;;;;;5012295;28;20468;-66
2022/11/30 03:56:59;;;;;;;18.10;3.17;;;7.40;98.00;;;;;;5012332;28;20465;-66
2022/11/30 03:59:26;;;;;;;3.83;2.53;;;7.40;98.00;;;;;;5012239;28;20463;-66
2022/11/30 04:01:53;;;;;;;3.70;2.30;;;7.40;98.00;;;;;;5012301;28;20979;-66
2022/11/30 04:04:21;;;;;;;5.87;3.60;;;7.40;98.00;;;;;;5012258;28;20461;-66
2022/11/30 04:06:48;;;;;;;8.33;3.93;;;7.40;98.00;;;;;;4994966;28;20465;-66
2022/11/30 04:09:16;;;;;;;7.10;3.17;;;7.40;98.00;;;;;;5012347;28;20463;-66
2022/11/30 04:11:43;;;;;;;5.60;3.63;;;7.50;98.00;;;;;;5012258;28;20487;-66
2022/11/30 04:14:11;;;;;;;4.40;2.80;;;7.40;98.00;;;;;;4994756;28;20472;-66
2022/11/30 04:16:38;;;;;;;4.20;2.90;;;7.40;98.00;;;;;;5012302;28;20516;-66
2022/11/30 04:19:05;;;;;;;5.17;2.97;;;7.40;98.00;;;;;;4994521;28;20984;-66
2022/11/30 04:21:32;;;;;;;6.10;3.33;;;7.40;98.00;;;;;;5011922;28;20569;-66
2022/11/30 04:23:59;;;;;;;3.83;2.60;;;7.40;98.00;;;;;;5012304;28;20870;-66
2022/11/30 04:26:27;;;;;;;4.20;2.50;;;7.40;98.00;;;;;;5016060;28;20524;-66
2022/11/30 04:28:54;;;;;;;4.07;2.30;;;7.30;98.00;;;;;;5016071;28;20453;-66
2022/11/30 04:31:22;;;;;;;7.57;2.67;;;7.50;98.00;;;;;;5015714;28;20464;-66
2022/11/30 04:33:54;;;;;;;9.10;2.90;;;7.40;98.00;;;;;;5015922;28;20449;-66
2022/11/30 04:36:21;;;;;;;6.43;2.83;;;7.20;98.00;;;;;;5015663;28;20980;-66
2022/11/30 04:38:49;;;;;;;8.53;4.10;;;7.30;98.00;;;;;;5015822;28;20456;-66
2022/11/30 04:41:16;;;;;;;6.87;2.80;;;7.40;98.00;;;;;;5015723;28;20458;-66
2022/11/30 04:43:46;;;;;;;5.07;2.87;;;7.40;98.00;;;;;;5015911;28;20452;-66
2022/11/30 04:46:13;;;;;;;4.77;2.73;;;7.40;98.00;;;;;;5015056;28;20952;-66
2022/11/30 04:48:40;;;;;;;5.30;2.73;;;7.40;98.00;;;;;;5015290;28;20960;-66
2022/11/30 04:51:09;;;;;;;4.43;2.87;;;7.40;98.00;;;;;;5015994;28;20959;-66
2022/11/30 04:53:38;;;;;;;4.20;3.20;;;7.40;98.00;;;;;;5015428;28;20487;-66
2022/11/30 04:56:07;;;;;;;4.20;2.30;;;7.40;98.00;;;;;;5015689;28;20461;-66
2022/11/30 04:58:34;;;;;;;3.83;2.43;;;7.30;98.00;;;;;;5015573;28;20549;-66
2022/11/30 05:01:03;;;;;;;5.20;3.47;;;7.30;98.00;;;;;;5015576;28;20461;-66
2022/11/30 05:03:30;;;;;;;5.80;3.53;;;7.30;98.00;;;;;;5015657;28;20511;-66
2022/11/30 05:05:57;;;;;;;5.70;2.93;;;7.30;98.00;;;;;;5015606;28;20795;-66
2022/11/30 05:08:24;;;;;;;7.27;3.23;;;7.40;98.00;;;;;;5015374;28;20467;-66
2022/11/30 05:10:55;;;;;;;6.93;4.03;;;7.20;98.00;;;;;;5015419;28;20464;-66
2022/11/30 05:13:23;;;;;;;5.47;3.20;;;7.20;98.00;;;;;;4997569;28;21065;-66
2022/11/30 05:15:52;;;;;;;7.90;3.20;;;7.20;98.00;;;;;;5015189;28;20483;-66
2022/11/30 05:18:20;;;;;;;7.83;3.23;;;7.10;98.00;;;;;;5014985;28;20458;-66
2022/11/30 05:20:48;;;;;;;3.90;2.87;;;7.10;98.00;;;;;;5014745;28;20464;-66
2022/11/30 05:23:19;;;;;;;7.03;3.20;;;7.10;98.00;;;;;;5014861;28;20486;-66
2022/11/30 05:25:46;;;;;;;3.83;2.40;;;7.00;98.00;;;;;;4998111;28;20466;-66
2022/11/30 05:28:14;;;;;;;8.00;3.40;;;7.00;98.00;;;;;;5014900;28;20454;-66
2022/11/30 05:30:42;;;;;;;9.40;3.57;;;7.00;98.00;;;;;;5014971;28;20456;-66
2022/11/30 05:33:10;;;;;;;4.70;2.17;;;7.00;98.00;;;;;;5014880;28;20902;-66
2022/11/30 05:35:39;;;;;;;4.37;2.77;;;7.10;98.00;;;;;;5014213;28;20464;-66
2022/11/30 05:38:07;;;;;;;5.73;2.87;;;7.10;98.00;;;;;;5014791;28;20466;-66
2022/11/30 05:40:34;;;;;;;5.63;3.30;;;7.10;98.00;;;;;;5014831;28;20457;-66
2022/11/30 05:43:03;;;;;;;3.60;2.80;;;7.10;98.00;;;;;;5014772;28;20459;-66
2022/11/30 05:45:30;;;;;;;3.87;3.40;;;7.00;98.00;;;;;;5014627;28;20461;-66
2022/11/30 05:47:58;;;;;;;5.70;3.37;;;7.00;98.00;;;;;;5014723;28;20478;-66
2022/11/30 05:50:25;;;;;;;7.83;3.40;;;6.90;98.00;;;;;;5014657;28;20942;-66
2022/11/30 05:52:55;;;;;;;7.53;3.60;;;6.80;98.00;;;;;;5014607;28;20491;-66
2022/11/30 05:55:22;;;;;;;13.33;3.50;;;6.80;98.00;;;;;;5014669;28;21002;-66
2022/11/30 05:57:49;;;;;;;4.10;2.80;;;6.80;98.00;;;;;;5014577;28;20461;-66
2022/11/30 06:00:17;;;;;;;5.47;3.27;;;6.80;98.00;;;;;;5014527;28;21250;-66
2022/11/30 06:02:46;;;;;;;8.40;2.77;;;6.80;98.00;;;;;;5014319;28;20462;-66
2022/11/30 06:05:14;;;;;;;4.50;2.70;;;7.00;98.00;;;;;;5014202;28;20465;-66
2022/11/30 06:07:41;;;;;;;4.53;3.10;;;7.00;98.00;;;;;;5014193;28;20465;-66
2022/11/30 06:10:11;;;;;;;4.37;3.10;;;7.00;98.00;;;;;;5014017;28;20459;-66
2022/11/30 06:12:38;;;;;;;4.97;2.80;;;7.00;98.00;;;;;;4996711;28;20483;-66
2022/11/30 06:15:10;;;;;;;5.27;3.03;;;7.00;98.00;;;;;;5013811;28;20467;-66
2022/11/30 06:17:37;;;;;;;8.23;3.60;;;6.90;98.00;;;;;;5013976;28;20988;-66
2022/11/30 06:20:05;;;;;;;6.27;3.37;;;6.90;98.00;;;;;;5013734;28;20526;-66
2022/11/30 06:22:32;;;;;;;3.87;2.53;;;6.80;98.00;;;;;;5013941;28;20466;-66
2022/11/30 06:24:59;;;;;;;6.40;3.20;;;6.80;98.00;;;;;;5013843;28;20459;-66
2022/11/30 06:27:32;;;;;;;5.83;2.80;;;6.70;98.00;;;;;;5013824;28;20962;-66
2022/11/30 06:29:59;;;;;;;9.43;3.50;;;6.60;98.00;;;;;;5013627;28;20457;-66
2022/11/30 06:32:26;;;;;;;5.60;2.73;;;6.40;98.00;;;;;;5013897;28;20899;-66
2022/11/30 06:34:53;;;;;;;3.27;2.60;;;6.40;98.00;;;;;;5012938;28;21026;-66
2022/11/30 06:37:20;;;;;;;3.53;2.77;;;6.40;98.00;;;;;;4995604;28;20514;-66
2022/11/30 06:39:47;;;;;;;15.90;2.60;;;6.40;98.00;;;;;;5012939;28;20470;-66
2022/11/30 06:42:15;;;;;;;5.30;3.33;;;6.50;98.00;;;;;;5013651;28;20456;-66
2022/11/30 06:44:43;;;;;;;3.47;2.50;;;6.50;98.00;;;;;;5013669;28;20460;-66
2022/11/30 06:47:10;;;;;;;5.23;2.90;;;6.50;98.00;;;;;;5012661;28;20510;-66
2022/11/30 06:49:38;;;;;;;4.63;2.70;;;6.50;98.00;;;;;;5013788;28;20476;-66
2022/11/30 06:52:05;;;;;;;4.33;2.90;;;6.50;98.00;;;;;;5013461;28;20897;-66
2022/11/30 06:54:32;;;;;;;8.73;3.40;;;6.40;98.00;;;;;;4996252;28;20493;-66
2022/11/30 06:57:00;;;;;;;7.67;4.47;;;6.40;98.00;;;;;;5013298;28;20463;-66
2022/11/30 06:59:29;;;;;;;6.57;3.20;;;6.40;98.00;;;;;;5013088;28;20462;-66
2022/11/30 07:01:57;;;;;;;5.17;3.07;;;6.30;98.00;;;;;;5013203;28;20459;-66
2022/11/30 07:04:24;;;;;;;7.87;4.20;;;6.30;98.00;;;;;;5013152;28;20461;-66
2022/11/30 07:06:51;;;;;;;10.73;3.00;;;6.30;98.00;;;;;;5013046;28;20941;-66
2022/11/30 07:09:18;;;;;;;5.70;3.00;;;6.30;98.00;;;;;;4995525;28;20470;-66
2022/11/30 07:11:45;;;;;;;6.90;2.97;;;6.30;98.00;;;;;;5012921;28;20553;-66
2022/11/30 07:14:13;;;;;;;6.17;3.70;;;6.40;98.00;;;;;;5012664;28;20494;-66
2022/11/30 07:16:41;;;;;;;5.60;3.40;;;6.40;98.00;;;;;;5012879;28;20466;-66
2022/11/30 07:19:09;;;;;;;11.10;4.13;;;6.40;98.00;;;;;;5012963;28;20945;-66
2022/11/30 07:21:37;;;;;;;6.20;3.20;;;6.60;98.00;;;;;;5012708;28;20467;-66
2022/11/30 07:26:49;;;;;;;7.03;3.70;;;6.50;98.00;;;;;;5012782;28;20449;-66
2022/11/30 07:29:16;;;;;;;11.03;3.60;;;6.50;98.00;;;;;;5012791;28;20461;-66
2022/11/30 07:31:43;;;;;;;7.80;3.27;;;6.60;98.00;;;;;;5012744;28;20461;-66
2022/11/30 07:34:12;;;;;;;2.90;2.27;;;6.70;98.00;;;;;;5012636;28;20552;-66
2022/11/30 07:36:39;;;;;;;4.33;3.00;;;6.80;98.00;;;;;;5012933;28;20467;-66
2022/11/30 07:39:06;;;;;;;7.17;3.70;;;6.80;98.00;;;;;;5012571;28;20464;-66
2022/11/30 07:41:34;;;;;;;5.00;3.20;;;6.70;98.00;;;;;;5023289;28;20493;-66
2022/11/30 07:44:04;;;;;;;8.07;4.07;;;6.70;98.00;;;;;;5032361;28;20510;-65
2022/11/30 07:46:36;;;;;;;6.10;2.63;;;6.80;98.00;;;;;;5032487;28;20460;-66
2022/11/30 07:49:04;;;;;;;3.60;2.37;;;6.70;98.00;;;;;;5032273;28;20486;-65
2022/11/30 07:51:33;;;;;;;4.00;2.77;;;6.80;98.00;;;;;;5032241;28;20511;-65
2022/11/30 07:54:01;;;;;;;4.30;3.07;;;6.80;98.00;;;;;;5032021;28;21168;-65
2022/11/30 07:56:29;;;;;;;8.67;3.90;;;6.80;98.00;;;;;;5032003;28;21026;-65
2022/11/30 07:58:58;;;;;;;11.73;3.50;;;6.80;98.00;;;;;;5031492;28;20491;-66
2022/11/30 08:01:27;;;;;;;6.30;3.53;;;6.80;98.00;;;;;;5031859;28;20942;-66
2022/11/30 08:03:54;;;;;;;6.40;2.93;;;6.80;98.00;;;;;;5032018;28;20557;-66
2022/11/30 08:06:24;;;;;;;6.87;2.77;;;6.80;98.00;;;;;;5031877;28;20462;-66
2022/11/30 08:08:54;;;;;;;8.63;3.60;;;7.00;98.00;;;;;;5031892;28;20455;-66
2022/11/30 08:11:23;;;;;;;5.37;3.00;;;7.00;98.00;;;;;;5031669;28;20586;-66
2022/11/30 08:13:50;;;;;;;6.50;3.73;;;6.90;98.00;;;;;;5031618;28;20539;-66
2022/11/30 08:16:19;;;;;;;8.13;3.10;;;6.80;98.00;;;;;;5031817;28;20458;-66
2022/11/30 08:18:47;;;;;;;7.93;3.90;;;6.70;98.00;;;;;;5031913;28;20466;-66
2022/11/30 08:21:16;;;;;;;5.47;3.20;;;6.60;98.00;;;;;;5031557;28;20510;-66
2022/11/30 08:23:45;;;;;;;19.43;3.33;;;6.60;98.00;;;;;;5031781;28;20968;-66
2022/11/30 08:26:17;;;;;;;10.57;3.77;;;6.60;98.00;;;;;;5031613;28;20470;-66
2022/11/30 08:28:46;;;;;;;8.93;3.83;;;6.60;98.00;;;;;;5031847;28;20457;-66
2022/11/30 08:31:15;;;;;;;5.63;2.97;;;6.50;98.00;;;;;;5022445;28;20469;-66
2022/11/30 08:33:44;;;;;;;5.03;3.17;;;6.50;98.00;;;;;;5009362;28;20498;-66
2022/11/30 08:36:14;;;;;;;4.90;3.20;;;6.60;98.00;;;;;;5009340;28;20808;-66
2022/11/30 08:38:42;;;;;;;8.13;3.43;;;6.70;98.00;;;;;;5009362;28;20464;-62
2022/11/30 08:41:11;;;;;;;5.20;3.20;;;6.70;98.00;;;;;;5009450;28;20479;-62
2022/11/30 08:43:40;;;;;;;6.27;3.43;;;6.80;98.00;;;;;;5009147;28;20464;-62
2022/11/30 08:46:08;;;;;;;6.43;3.10;;;6.80;98.00;;;;;;5009124;28;20457;-62
2022/11/30 08:48:36;;;;;;;6.90;3.70;;;6.70;98.00;;;;;;5008796;28;20455;-62
2022/11/30 08:51:06;;;;;;;7.00;3.37;;;6.70;98.00;;;;;;5007011;28;20472;-62
2022/11/30 08:53:41;;;;;;;6.20;3.27;;;6.70;98.00;;;;;;5008495;28;20567;-62
2022/11/30 08:56:12;;;;;;;8.03;3.57;;;6.70;98.00;;;;;;5009171;28;20461;-61
2022/11/30 08:58:41;;;;;;;3.80;2.37;;;6.60;98.00;;;;;;5008948;28;20464;-62
2022/11/30 09:01:10;;;;;;;10.60;4.40;;;6.80;98.00;;;;;;5008630;28;20540;-62
2022/11/30 09:03:37;;;;;;;6.50;3.20;;;6.80;98.00;;;;;;5009010;28;20532;-62
2022/11/30 09:06:06;;;;;;;3.37;3.03;;;7.00;98.00;;;;;;5008562;28;20874;-62
2022/11/30 09:08:33;;;;;;;5.20;3.20;;;7.10;98.00;;;;;;5008889;28;20462;-62
2022/11/30 09:11:07;;;;;;;9.70;3.70;;;7.10;98.00;;;;;;5010475;28;20462;-62
2022/11/30 09:13:34;;;;;;;8.17;3.97;;;7.20;98.00;;;;;;5011911;28;20977;-62
2022/11/30 09:16:04;;;;;;;8.63;4.03;;;7.30;98.00;;;;;;5011035;28;20467;-62
2022/11/30 09:18:32;;;;;;;8.17;3.77;;;7.40;98.00;;;;;;5011913;28;20472;-62
2022/11/30 09:21:00;;;;;;;8.63;3.80;;;7.50;98.00;;;;;;5011595;28;20555;-62
2022/11/30 09:23:29;;;;;;;7.83;2.97;;;7.30;98.00;;;;;;5011997;28;20871;-62
2022/11/30 09:25:57;;;;;;;10.93;3.90;;;7.30;98.00;;;;;;5011880;28;20463;-62
2022/11/30 09:28:25;;;;;;;8.83;3.60;;;7.30;98.00;;;;;;5011704;28;20451;-62
2022/11/30 09:30:53;;;;;;;6.13;3.33;;;7.20;98.00;;;;;;5011703;28;20549;-62
2022/11/30 09:33:22;;;;;;;11.57;4.13;;;7.20;98.00;;;;;;5011664;28;20514;-62
2022/11/30 09:35:56;;;;;;;5.90;3.00;;;7.20;98.00;;;;;;5011973;28;20967;-61
2022/11/30 09:38:23;;;;;;;8.90;3.93;;;7.20;98.00;;;;;;5011981;28;20996;-63
2022/11/30 09:40:55;;;;;;;8.00;4.33;;;7.20;98.00;;;;;;5011873;28;20471;-62
2022/11/30 09:43:33;;;;;;;6.17;3.80;;;7.30;98.00;;;;;;5011786;28;20592;-62
2022/11/30 09:46:12;;;;;;;8.17;3.97;;;7.30;98.00;;;;;;5011559;28;20560;-62
2022/11/30 09:48:55;;;;;;;6.20;4.10;;;7.30;98.00;;;;;;5011368;28;20849;-62
2022/11/30 09:51:27;;;;;;;10.10;4.17;;;7.50;98.00;;;;;;5010165;28;20479;-62
2022/11/30 09:53:57;;;;;;;7.17;3.53;;;7.50;98.00;;;;;;5010849;28;20492;-62
2022/11/30 09:56:28;;;;;;;11.93;4.57;;;7.60;98.00;;;;;;5011289;28;20459;-62
2022/11/30 09:59:00;;;;;;;7.90;3.70;;;7.70;98.00;;;;;;5011348;28;20465;-62
2022/11/30 10:01:27;;;;;;;6.00;3.50;;;7.70;98.00;;;;;;5011166;28;20461;-62
2022/11/30 10:03:57;;;;;;;9.23;4.00;;;7.90;98.00;;;;;;4993737;28;20822;-62
2022/11/30 10:06:30;;;;;;;7.77;3.80;;;7.90;98.00;;;;;;5010838;28;20490;-62
2022/11/30 10:09:20;;;;;;;6.90;3.70;;;7.80;98.00;;;;;;5011096;28;20469;-62
2022/11/30 10:11:56;;;;;;;9.60;3.93;;;7.80;98.00;;;;;;5007771;28;20461;-63
2022/11/30 10:14:57;;;;;;;6.50;3.93;;;7.80;98.00;;;;;;5002888;28;21014;-63
2022/11/30 10:17:37;;;;;;;9.03;3.83;;;7.80;98.00;;;;;;5010889;28;20491;-62
2022/11/30 10:20:28;;;;;;;6.50;3.30;;;7.80;98.00;;;;;;5010548;28;20460;-63
2022/11/30 10:23:12;;;;;;;7.27;4.10;;;7.90;98.00;;;;;;5007949;28;20467;-61
2022/11/30 10:25:49;;;;;;;11.40;5.90;;;7.90;98.00;;;;;;5003808;28;20464;-63
2022/11/30 10:28:18;;;;;;;7.30;3.80;;;7.90;98.00;;;;;;5010689;28;20464;-62
2022/11/30 10:30:47;;;;;;;4.43;2.83;;;8.10;98.00;;;;;;5010698;28;20514;-62
2022/11/30 10:33:18;;;;;;;9.07;3.30;;;8.20;98.00;;;;;;5010368;28;20467;-62
2022/11/30 10:35:50;;;;;;;13.17;4.33;;;8.10;98.00;;;;;;5011051;28;20882;-63
2022/11/30 10:38:24;;;;;;;7.63;3.87;;;8.20;98.00;;;;;;5010532;28;20467;-62
2022/11/30 10:40:55;;;;;;;7.80;4.23;;;8.10;98.00;;;;;;5010536;28;20470;-62
2022/11/30 10:43:31;;;;;;;7.47;4.00;;;8.10;98.00;;;;;;5010279;28;20825;-62
2022/11/30 10:45:58;;;;;;;7.10;4.30;;;8.10;98.00;;;;;;5010263;28;20452;-62
2022/11/30 10:48:34;;;;;;;8.60;4.60;;;8.10;98.00;;;;;;4992993;28;20520;-62
2022/11/30 10:51:04;;;;;;;9.87;4.50;;;8.00;98.00;;;;;;5008161;28;20456;-62
2022/11/30 10:53:32;;;;;;;9.03;4.33;;;8.10;98.00;;;;;;5010096;28;20987;-62
2022/11/30 10:56:03;;;;;;;7.80;4.17;;;8.10;98.00;;;;;;5010028;28;20465;-62
2022/11/30 10:58:33;;;;;;;11.20;3.93;;;8.10;98.00;;;;;;4992684;28;20890;-62
2022/11/30 11:01:07;;;;;;;9.23;3.80;;;8.00;98.00;;;;;;5009864;28;20462;-62
2022/11/30 11:03:34;;;;;;;5.93;3.30;;;7.90;98.00;;;;;;5010109;28;20472;-62
2022/11/30 11:06:22;;;;;;;7.37;3.57;;;7.90;98.00;;;;;;5010139;28;20464;-62
2022/11/30 11:08:50;;;;;;;12.17;3.90;;;7.90;98.00;;;;;;5001640;28;20805;-63
2022/11/30 11:11:33;;;;;;;5.97;3.73;;;7.90;98.00;;;;;;5009362;28;20506;-63
2022/11/30 11:14:17;;;;;;;6.40;3.47;;;8.10;98.00;;;;;;5009493;28;20484;-63
2022/11/30 11:16:53;;;;;;;6.97;4.07;;;8.20;98.00;;;;;;5009731;28;20800;-63
2022/11/30 11:19:25;;;;;;;7.70;3.73;;;8.30;98.00;;;;;;5009479;28;20855;-62
2022/11/30 11:21:54;;;;;;;7.80;3.70;;;8.30;98.00;;;;;;5009382;28;20514;-62
2022/11/30 11:24:26;;;;;;;7.80;3.47;;;8.20;98.00;;;;;;5009525;28;21798;-62
2022/11/30 11:26:55;;;;;;;7.70;3.50;;;8.10;98.00;;;;;;5009260;28;20464;-62
2022/11/30 11:29:30;;;;;;;9.47;3.00;;;8.00;98.00;;;;;;5009163;28;20461;-62
2022/11/30 11:32:29;;;;;;;14.00;4.80;;;8.00;98.00;;;;;;5009584;28;20478;-62
2022/11/30 11:34:58;;;;;;;11.40;3.00;;;8.00;98.00;;;;;;5004407;28;20501;-62
2022/11/30 11:37:30;;;;;;;4.73;3.10;;;8.00;98.00;;;;;;5009926;28;20472;-62
2022/11/30 11:40:00;;;;;;;9.40;4.00;;;8.00;98.00;;;;;;5009461;28;20889;-62
2022/11/30 11:42:30;;;;;;;34.53;4.63;;;8.10;98.00;;;;;;5009795;28;20468;-62
2022/11/30 11:45:00;;;;;;;4.97;3.43;;;8.10;98.00;;;;;;5009886;28;21045;-62
2022/11/30 11:47:39;;;;;;;9.70;4.37;;;8.20;98.00;;;;;;5009762;28;20968;-62
2022/11/30 11:50:22;;;;;;;8.37;2.73;;;8.30;98.00;;;;;;5007982;28;20886;-62
2022/11/30 11:53:06;;;;;;;6.67;3.00;;;8.10;98.00;;;;;;5009438;28;20464;-62
2022/11/30 11:55:35;;;;;;;5.60;3.13;;;8.20;98.00;;;;;;5009526;28;20555;-64
2022/11/30 11:58:05;;;;;;;5.00;2.80;;;8.30;98.00;;;;;;5009995;28;20512;-63
2022/11/30 12:00:33;;;;;;;7.63;4.00;;;8.30;98.00;;;;;;4992568;28;20468;-62
2022/11/30 12:03:12;;;;;;;6.70;3.70;;;8.20;98.00;;;;;;5009939;28;20466;-62
2022/11/30 12:05:43;;;;;;;7.73;3.27;;;8.10;98.00;;;;;;5009538;28;20475;-62
2022/11/30 12:08:16;;;;;;;6.27;3.13;;;8.00;98.00;;;;;;5009042;28;20465;-62
2022/11/30 12:10:50;;;;;;;4.80;2.80;;;8.20;98.00;;;;;;5009159;28;20475;-62
2022/11/30 12:13:18;;;;;;;4.53;3.00;;;8.30;98.00;;;;;;5009398;28;20471;-62
2022/11/30 12:15:58;;;;;;;5.50;3.27;;;8.20;98.00;;;;;;5008935;28;20493;-62
2022/11/30 12:18:36;;;;;;;8.90;4.13;;;8.30;98.00;;;;;;5008883;28;20472;-62
2022/11/30 12:21:12;;;;;;;5.70;3.00;;;8.40;98.00;;;;;;5008730;28;20465;-63
2022/11/30 12:24:01;;;;;;;6.73;3.10;;;8.30;98.00;;;;;;5009486;28;20523;-62
2022/11/30 12:26:37;;;;;;;3.20;2.50;;;8.20;98.00;;;;;;5009733;28;20483;-63
2022/11/30 12:29:20;;;;;;;4.07;3.03;;;8.20;98.00;;;;;;5009053;28;20519;-63
2022/11/30 12:32:01;;;;;;;6.30;2.90;;;8.10;98.00;;;;;;5009344;28;20459;-63
2022/11/30 12:34:42;;;;;;;8.83;3.47;;;8.10;98.00;;;;;;4992488;28;20512;-63
2022/11/30 12:37:20;;;;;;;8.40;3.60;;;8.20;98.00;;;;;;5009256;28;20462;-63
2022/11/30 12:39:57;;;;;;;5.83;3.60;;;8.30;98.00;;;;;;5009368;28;20470;-63
2022/11/30 12:42:33;;;;;;;5.53;2.90;;;8.30;98.00;;;;;;5009234;28;20533;-64
2022/11/30 12:45:10;;;;;;;5.00;2.67;;;8.20;98.00;;;;;;5009691;28;20465;-64
2022/11/30 12:47:47;;;;;;;7.63;3.10;;;8.10;98.00;;;;;;5005783;28;20484;-63
2022/11/30 12:50:33;;;;;;;5.20;3.00;;;8.10;98.00;;;;;;5010699;28;20493;-63
2022/11/30 12:53:13;;;;;;;11.23;3.87;;;8.10;98.00;;;;;;5012836;28;21099;-63
2022/11/30 12:56:05;;;;;;;6.20;3.20;;;8.00;98.00;;;;;;4996762;28;20497;-63
2022/11/30 12:58:40;;;;;;;8.37;3.17;;;8.00;98.00;;;;;;5013222;28;21135;-65
2022/11/30 13:01:22;;;;;;;3.33;2.07;;;8.00;98.00;;;;;;5004913;28;20516;-63
2022/11/30 13:03:57;;;;;;;5.60;3.40;;;8.00;98.00;;;;;;5012745;28;20473;-63
2022/11/30 13:06:29;;;;;;;4.23;3.00;;;7.90;98.00;;;;;;5012791;28;20884;-63
2022/11/30 13:09:01;;;;;;;9.30;3.37;;;7.80;98.00;;;;;;5012877;28;20519;-62
2022/11/30 13:11:36;;;;;;;3.83;2.70;;;7.70;98.00;;;;;;5012736;28;20458;-62
2022/11/30 13:14:09;;;;;;;10.03;4.50;;;7.60;98.00;;;;;;5012694;28;20550;-63